createdAt,value
2017-07-29T00:01:51.847Z,60.90
2017-07-29T00:04:17.909Z,61.20
2017-07-29T00:06:43.964Z,61.40
2017-07-29T00:09:10.749Z,61.00
2017-07-29T00:11:36.809Z,60.80
2017-07-29T00:14:02.861Z,60.80
2017-07-29T00:16:28.913Z,61.00
2017-07-29T00:18:54.957Z,60.30
2017-07-29T00:21:21.009Z,60.20
2017-07-29T00:23:47.045Z,60.10
2017-07-29T00:26:13.102Z,60.20
2017-07-29T00:28:39.150Z,60.80
2017-07-29T00:31:05.193Z,61.20
2017-07-29T00:33:31.240Z,60.50
2017-07-29T00:35:57.301Z,60.00
2017-07-29T00:38:23.342Z,60.90
2017-07-29T00:40:49.383Z,61.40
2017-07-29T00:43:15.434Z,60.90
2017-07-29T00:45:41.474Z,61.00
2017-07-29T00:48:07.522Z,61.30
2017-07-29T00:50:33.574Z,61.00
2017-07-29T00:52:59.617Z,61.30
2017-07-29T00:55:25.662Z,61.50
2017-07-29T00:57:51.704Z,61.60
2017-07-29T01:00:17.773Z,61.60
2017-07-29T01:02:43.814Z,61.90
2017-07-29T01:05:09.858Z,62.30
2017-07-29T01:07:35.900Z,61.30
2017-07-29T01:10:01.958Z,61.60
2017-07-29T01:12:28.006Z,62.00
2017-07-29T01:14:54.045Z,62.00
2017-07-29T01:33:41.053Z,61.00
2017-07-29T01:36:07.105Z,61.40
2017-07-29T01:38:33.153Z,61.40
2017-07-29T01:43:34.881Z,61.60
2017-07-29T01:46:00.922Z,61.50
2017-07-29T01:48:27.435Z,61.60
2017-07-29T01:50:53.641Z,62.20
2017-07-29T01:53:19.697Z,61.30
2017-07-29T01:55:45.750Z,61.80
2017-07-29T01:58:11.785Z,62.00
2017-07-29T02:00:37.934Z,62.80
2017-07-29T02:03:03.985Z,62.70
2017-07-29T02:05:30.778Z,62.70
2017-07-29T02:07:56.830Z,62.60
2017-07-29T02:10:22.880Z,62.40
2017-07-29T02:12:48.932Z,62.20
2017-07-29T02:15:14.975Z,62.40
2017-07-29T02:17:41.914Z,62.50
2017-07-29T02:20:07.966Z,62.40
2017-07-29T02:22:34.005Z,62.20
2017-07-29T02:25:00.038Z,61.80
2017-07-29T02:27:26.821Z,63.20
2017-07-29T02:29:52.859Z,62.20
2017-07-29T02:32:18.900Z,62.20
2017-07-29T02:34:44.942Z,62.50
2017-07-29T02:37:11.003Z,62.30
2017-07-29T02:39:37.037Z,62.60
2017-07-29T02:42:03.106Z,62.50
2017-07-29T02:44:29.423Z,62.70
2017-07-29T02:46:55.463Z,62.70
2017-07-29T02:49:21.505Z,62.50
2017-07-29T02:51:47.546Z,62.60
2017-07-29T02:54:13.589Z,62.60
2017-07-29T02:56:39.630Z,62.70
2017-07-29T02:59:05.670Z,62.50
2017-07-29T03:01:31.708Z,62.60
2017-07-29T03:03:57.733Z,62.80
2017-07-29T03:06:23.770Z,62.40
2017-07-29T03:08:49.802Z,62.70
2017-07-29T03:11:15.825Z,62.40
2017-07-29T03:13:41.864Z,62.70
2017-07-29T03:16:07.906Z,62.90
2017-07-29T03:18:33.953Z,63.00
2017-07-29T03:21:00.002Z,63.20
2017-07-29T03:23:26.045Z,63.40
2017-07-29T03:25:52.097Z,62.90
2017-07-29T03:28:18.129Z,63.10
2017-07-29T03:30:44.176Z,63.20
2017-07-29T03:33:10.213Z,62.40
2017-07-29T03:35:36.246Z,62.50
2017-07-29T03:38:02.275Z,63.00
2017-07-29T03:40:28.318Z,63.40
2017-07-29T03:42:54.354Z,63.50
2017-07-29T03:45:20.391Z,63.60
2017-07-29T03:47:46.425Z,63.50
2017-07-29T03:50:12.538Z,63.50
2017-07-29T03:52:38.631Z,63.50
2017-07-29T03:55:04.710Z,63.50
2017-07-29T03:57:31.498Z,63.70
2017-07-29T03:59:57.550Z,63.70
2017-07-29T04:02:23.587Z,63.70
2017-07-29T04:04:49.634Z,63.80
2017-07-29T04:07:16.407Z,64.50
2017-07-29T04:09:42.445Z,63.80
2017-07-29T04:12:08.507Z,64.00
2017-07-29T04:14:34.566Z,64.00
2017-07-29T04:17:01.358Z,64.00
2017-07-29T04:19:27.385Z,64.00
2017-07-29T04:21:53.432Z,63.70
2017-07-29T04:24:19.464Z,63.80
2017-07-29T04:26:45.505Z,63.70
2017-07-29T04:29:11.551Z,63.90
2017-07-29T04:31:37.599Z,64.00
2017-07-29T04:34:03.633Z,64.00
2017-07-29T04:36:29.666Z,63.70
2017-07-29T04:38:55.714Z,63.90
2017-07-29T04:41:21.750Z,63.90
2017-07-29T04:43:47.773Z,64.00
2017-07-29T04:46:13.879Z,64.10
2017-07-29T04:48:39.919Z,64.10
2017-07-29T04:51:05.974Z,63.90
2017-07-29T04:53:32.794Z,63.90
2017-07-29T04:55:58.861Z,63.90
2017-07-29T04:58:24.922Z,63.90
2017-07-29T05:00:50.962Z,62.80
2017-07-29T05:03:17.021Z,63.00
2017-07-29T05:05:43.822Z,63.10
2017-07-29T05:08:09.875Z,63.00
2017-07-29T05:10:35.935Z,63.00
2017-07-29T05:13:01.987Z,63.40
2017-07-29T05:15:28.041Z,62.50
2017-07-29T05:17:54.098Z,62.80
2017-07-29T05:20:20.170Z,62.80
2017-07-29T05:22:46.226Z,63.10
2017-07-29T05:25:12.275Z,62.40
2017-07-29T05:27:38.337Z,62.90
2017-07-29T05:30:04.399Z,62.70
2017-07-29T05:32:30.478Z,61.90
2017-07-29T05:34:56.548Z,62.00
2017-07-29T05:37:22.598Z,61.30
2017-07-29T05:39:48.682Z,61.50
2017-07-29T05:42:14.734Z,61.40
2017-07-29T05:44:40.798Z,62.30
2017-07-29T05:47:06.843Z,61.40
2017-07-29T05:49:32.907Z,61.00
2017-07-29T05:51:58.981Z,61.80
2017-07-29T05:54:25.038Z,61.10
2017-07-29T05:56:51.126Z,61.00
2017-07-29T05:59:17.178Z,60.70
2017-07-29T06:01:43.245Z,61.70
2017-07-29T06:04:09.302Z,61.00
2017-07-29T06:06:35.372Z,62.30
2017-07-29T06:09:01.419Z,61.70
2017-07-29T06:11:27.489Z,62.20
2017-07-29T06:13:53.561Z,62.20
2017-07-29T06:16:19.617Z,61.80
2017-07-29T06:18:45.668Z,61.90
2017-07-29T06:21:11.729Z,61.50
2017-07-29T06:23:37.790Z,61.80
2017-07-29T06:26:03.859Z,62.10
2017-07-29T06:28:29.910Z,61.80
2017-07-29T06:30:56.022Z,61.80
2017-07-29T06:33:22.093Z,62.20
2017-07-29T06:35:48.145Z,62.50
2017-07-29T06:38:14.207Z,61.70
2017-07-29T06:40:40.255Z,62.00
2017-07-29T06:43:06.308Z,62.30
2017-07-29T06:45:32.371Z,62.20
2017-07-29T06:47:58.417Z,61.80
2017-07-29T06:50:24.455Z,61.60
2017-07-29T06:52:50.509Z,62.10
2017-07-29T06:55:16.557Z,62.00
2017-07-29T06:57:42.589Z,61.90
2017-07-29T07:00:08.641Z,61.70
2017-07-29T07:02:34.693Z,61.20
2017-07-29T07:05:00.734Z,61.60
2017-07-29T07:07:26.818Z,62.20
2017-07-29T07:09:52.859Z,62.00
2017-07-29T07:12:18.897Z,61.70
2017-07-29T07:14:44.958Z,61.90
2017-07-29T07:17:10.998Z,61.10
2017-07-29T07:19:37.038Z,61.40
2017-07-29T07:22:03.090Z,61.60
2017-07-29T07:24:29.125Z,62.00
2017-07-29T07:26:55.910Z,63.00
2017-07-29T07:29:21.954Z,62.20
2017-07-29T07:31:47.989Z,62.20
2017-07-29T07:34:14.030Z,62.40
2017-07-29T07:36:40.072Z,62.40
2017-07-29T07:39:06.142Z,62.10
2017-07-29T07:41:32.183Z,62.00
2017-07-29T07:43:58.231Z,61.20
2017-07-29T07:46:24.291Z,62.40
2017-07-29T07:48:50.330Z,61.80
2017-07-29T07:51:16.410Z,62.00
2017-07-29T07:53:42.474Z,60.80
2017-07-29T07:56:08.541Z,61.00
2017-07-29T07:58:34.600Z,62.10
2017-07-29T08:01:00.654Z,61.80
2017-07-29T08:03:26.706Z,61.80
2017-07-29T08:05:52.771Z,61.80
2017-07-29T08:08:18.834Z,61.00
2017-07-29T08:10:44.890Z,60.30
2017-07-29T08:13:10.946Z,61.10
2017-07-29T08:15:37.054Z,61.90
2017-07-29T08:18:03.106Z,60.10
2017-07-29T08:20:29.899Z,59.20
2017-07-29T08:22:55.963Z,59.30
2017-07-29T08:25:22.026Z,58.60
2017-07-29T08:27:48.080Z,58.80
2017-07-29T08:30:14.134Z,59.00
2017-07-29T08:32:40.197Z,59.00
2017-07-29T08:35:06.286Z,59.10
2017-07-29T08:37:32.345Z,59.10
2017-07-29T08:39:59.147Z,58.00
2017-07-29T08:42:25.227Z,58.00
2017-07-29T08:44:51.294Z,58.30
2017-07-29T08:47:17.365Z,58.60
2017-07-29T08:49:43.435Z,58.20
2017-07-29T08:52:09.501Z,58.30
2017-07-29T08:54:35.535Z,57.70
2017-07-29T08:57:01.611Z,57.10
2017-07-29T08:59:27.656Z,57.00
2017-07-29T09:01:53.712Z,57.00
2017-07-29T09:04:20.501Z,57.30
2017-07-29T09:06:46.546Z,57.30
2017-07-29T09:09:12.590Z,57.30
2017-07-29T09:11:38.726Z,56.90
2017-07-29T09:14:04.775Z,57.60
2017-07-29T09:16:30.813Z,57.30
2017-07-29T09:18:56.862Z,57.40
2017-07-29T09:21:22.902Z,57.00
2017-07-29T09:23:48.955Z,57.00
2017-07-29T09:26:15.007Z,57.60
2017-07-29T09:28:41.052Z,57.50
2017-07-29T09:31:07.137Z,57.50
2017-07-29T09:33:33.190Z,57.40
2017-07-29T09:35:59.241Z,57.70
2017-07-29T09:38:25.305Z,57.30
2017-07-29T09:40:51.346Z,57.40
2017-07-29T09:43:17.411Z,57.30
2017-07-29T09:45:43.485Z,57.30
2017-07-29T09:48:09.526Z,57.40
2017-07-29T09:50:35.565Z,57.30
2017-07-29T09:53:01.626Z,57.30
2017-07-29T09:55:27.672Z,57.20
2017-07-29T09:57:53.714Z,57.20
2017-07-29T10:00:19.758Z,57.10
2017-07-29T10:02:45.822Z,57.10
2017-07-29T10:05:11.862Z,57.00
2017-07-29T10:07:37.901Z,57.10
2017-07-29T10:10:03.962Z,57.00
2017-07-29T10:12:30.021Z,57.00
2017-07-29T10:14:56.085Z,56.90
2017-07-29T10:17:22.121Z,56.90
2017-07-29T10:19:48.154Z,56.90
2017-07-29T10:22:14.217Z,56.80
2017-07-29T10:24:40.278Z,56.50
2017-07-29T10:27:06.326Z,56.60
2017-07-29T10:29:32.370Z,56.70
2017-07-29T10:31:58.440Z,56.60
2017-07-29T10:34:24.481Z,56.50
2017-07-29T10:36:50.540Z,56.70
2017-07-29T10:39:17.358Z,56.50
2017-07-29T10:41:43.390Z,55.80
2017-07-29T10:44:09.438Z,56.20
2017-07-29T10:46:36.343Z,55.50
2017-07-29T10:49:02.390Z,55.80
2017-07-29T10:51:28.480Z,56.30
2017-07-29T10:53:54.545Z,56.30
2017-07-29T10:56:20.611Z,56.30
2017-07-29T10:58:46.669Z,56.00
2017-07-29T11:01:12.718Z,56.30
2017-07-29T11:03:38.770Z,56.30
2017-07-29T11:06:05.568Z,56.20
2017-07-29T11:08:31.630Z,56.20
2017-07-29T11:10:57.738Z,55.70
2017-07-29T11:13:23.780Z,55.90
2017-07-29T11:15:49.839Z,56.10
2017-07-29T11:18:15.902Z,56.10
2017-07-29T11:20:41.962Z,56.20
2017-07-29T11:23:08.010Z,56.20
2017-07-29T11:25:34.065Z,56.20
2017-07-29T11:28:00.171Z,55.70
2017-07-29T11:30:26.230Z,55.90
2017-07-29T11:32:52.292Z,56.10
2017-07-29T11:35:18.345Z,56.00
2017-07-29T11:37:44.415Z,56.10
2017-07-29T11:40:10.469Z,56.10
2017-07-29T11:42:36.542Z,56.10
2017-07-29T11:45:02.612Z,56.00
2017-07-29T11:47:28.671Z,56.00
2017-07-29T11:49:54.729Z,56.00
2017-07-29T11:52:20.845Z,56.10
2017-07-29T11:54:46.897Z,56.10
2017-07-29T11:57:12.937Z,56.10
2017-07-29T11:59:38.965Z,56.00
2017-07-29T12:02:05.005Z,56.00
2017-07-29T12:04:31.055Z,56.10
2017-07-29T12:06:57.097Z,56.00
2017-07-29T12:09:23.147Z,56.00
2017-07-29T12:11:49.195Z,56.10
2017-07-29T12:14:15.239Z,56.00
2017-07-29T12:16:41.303Z,56.10
2017-07-29T12:19:07.333Z,56.10
2017-07-29T12:21:33.354Z,56.10
2017-07-29T12:23:59.391Z,56.10
2017-07-29T12:26:25.430Z,56.10
2017-07-29T12:28:51.471Z,56.10
2017-07-29T12:31:17.525Z,56.10
2017-07-29T12:33:44.302Z,56.00
2017-07-29T12:36:10.357Z,56.00
2017-07-29T12:38:36.390Z,56.00
2017-07-29T12:41:02.434Z,56.00
2017-07-29T12:43:29.218Z,56.00
2017-07-29T12:45:55.262Z,56.00
2017-07-29T12:48:21.292Z,56.00
2017-07-29T12:50:47.350Z,56.00
2017-07-29T12:53:13.426Z,56.00
2017-07-29T12:55:39.538Z,55.90
2017-07-29T12:58:05.599Z,56.00
2017-07-29T13:00:31.650Z,55.90
2017-07-29T13:02:57.712Z,55.90
2017-07-29T13:05:23.762Z,56.60
2017-07-29T13:07:49.816Z,55.90
2017-07-29T13:10:15.922Z,55.90
2017-07-29T13:12:42.009Z,56.00
2017-07-29T13:15:08.075Z,56.40
2017-07-29T13:17:34.129Z,56.50
2017-07-29T13:20:00.187Z,56.80
2017-07-29T13:22:26.247Z,57.00
2017-07-29T13:24:52.299Z,57.00
2017-07-29T13:27:18.350Z,56.90
2017-07-29T13:29:45.151Z,57.50
2017-07-29T13:32:11.206Z,56.90
2017-07-29T13:34:37.258Z,57.20
2017-07-29T13:37:03.305Z,57.10
2017-07-29T13:39:29.366Z,56.90
2017-07-29T13:41:55.430Z,56.90
2017-07-29T13:44:22.230Z,56.80
2017-07-29T13:46:48.283Z,56.70
2017-07-29T13:49:14.379Z,56.90
2017-07-29T13:51:40.430Z,56.60
2017-07-29T13:54:06.464Z,56.60
2017-07-29T13:56:32.518Z,55.90
2017-07-29T13:58:58.689Z,56.40
2017-07-29T14:01:25.631Z,56.10
2017-07-29T14:03:51.827Z,56.10
2017-07-29T14:06:17.958Z,56.00
2017-07-29T14:08:44.027Z,55.80
2017-07-29T14:11:10.090Z,55.90
2017-07-29T14:13:36.176Z,55.90
2017-07-29T14:16:02.242Z,55.80
2017-07-29T14:18:28.318Z,56.00
2017-07-29T14:20:54.383Z,56.00
2017-07-29T14:23:20.454Z,56.20
2017-07-29T14:25:46.526Z,56.20
2017-07-29T14:28:12.578Z,56.00
2017-07-29T14:30:38.634Z,56.20
2017-07-29T14:33:04.675Z,56.20
2017-07-29T14:35:30.718Z,56.00
2017-07-29T14:37:56.762Z,56.00
2017-07-29T14:40:22.870Z,55.90
2017-07-29T14:42:48.901Z,56.10
2017-07-29T14:45:14.942Z,55.70
2017-07-29T14:47:41.046Z,55.50
2017-07-29T14:50:07.096Z,55.80
2017-07-29T14:52:33.874Z,56.20
2017-07-29T14:54:59.919Z,55.60
2017-07-29T14:57:25.982Z,55.30
2017-07-29T14:59:52.051Z,55.30
2017-07-29T15:02:18.097Z,55.40
2017-07-29T15:04:44.225Z,55.80
2017-07-29T15:07:10.262Z,55.90
2017-07-29T15:09:36.311Z,55.50
2017-07-29T15:12:02.355Z,55.20
2017-07-29T15:14:28.403Z,54.90
2017-07-29T15:16:54.455Z,54.80
2017-07-29T15:19:20.501Z,54.80
2017-07-29T15:21:46.574Z,54.80
2017-07-29T15:24:12.622Z,54.70
2017-07-29T15:26:38.669Z,54.80
2017-07-29T15:29:04.744Z,55.00
2017-07-29T15:31:30.791Z,55.50
2017-07-29T15:33:56.829Z,55.60
2017-07-29T15:36:22.887Z,55.60
2017-07-29T15:38:48.944Z,55.60
2017-07-29T15:41:15.730Z,55.80
2017-07-29T15:43:41.769Z,55.70
2017-07-29T15:46:07.797Z,55.80
2017-07-29T15:48:33.830Z,55.80
2017-07-29T15:50:59.895Z,55.70
2017-07-29T15:53:25.950Z,55.80
2017-07-29T15:55:52.029Z,55.70
2017-07-29T15:58:18.093Z,55.80
2017-07-29T16:00:44.146Z,55.70
2017-07-29T16:03:10.198Z,55.70
2017-07-29T16:05:36.253Z,55.70
2017-07-29T16:08:02.301Z,55.70
2017-07-29T16:10:28.359Z,55.70
2017-07-29T16:12:54.427Z,55.60
2017-07-29T16:15:20.489Z,55.60
2017-07-29T16:17:46.541Z,55.70
2017-07-29T16:20:12.586Z,55.60
2017-07-29T16:22:38.632Z,55.60
2017-07-29T16:25:04.686Z,55.60
2017-07-29T16:27:30.742Z,55.70
2017-07-29T16:29:56.797Z,55.70
2017-07-29T16:32:22.853Z,55.70
2017-07-29T16:34:48.910Z,55.70
2017-07-29T16:37:14.982Z,55.70
2017-07-29T16:39:41.038Z,55.70
2017-07-29T16:42:07.128Z,55.70
2017-07-29T16:44:33.191Z,55.70
2017-07-29T16:46:59.243Z,55.70
2017-07-29T16:49:25.302Z,55.70
2017-07-29T16:51:52.094Z,55.80
2017-07-29T16:54:18.155Z,55.80
2017-07-29T16:56:44.214Z,55.80
2017-07-29T16:59:10.269Z,55.80
2017-07-29T17:01:36.334Z,55.80
2017-07-29T17:04:02.390Z,55.90
2017-07-29T17:06:28.459Z,55.90
2017-07-29T17:08:54.515Z,56.00
2017-07-29T17:11:20.620Z,55.90
2017-07-29T17:13:46.667Z,56.00
2017-07-29T17:16:12.737Z,56.00
2017-07-29T17:18:38.813Z,56.10
2017-07-29T17:21:04.875Z,56.10
2017-07-29T17:23:30.943Z,56.00
2017-07-29T17:25:57.007Z,56.00
2017-07-29T17:28:54.098Z,56.10
2017-07-29T17:31:51.471Z,56.10
2017-07-29T17:34:17.545Z,56.10
2017-07-29T17:36:43.610Z,56.10
2017-07-29T17:39:09.667Z,56.10
2017-07-29T17:41:35.728Z,56.20
2017-07-29T17:44:01.799Z,56.20
2017-07-29T17:46:27.845Z,56.20
2017-07-29T17:48:53.902Z,56.30
2017-07-29T17:51:19.949Z,56.30
2017-07-29T17:53:46.026Z,56.20
2017-07-29T17:56:12.083Z,56.20
2017-07-29T17:58:38.148Z,56.30
2017-07-29T18:01:04.223Z,56.30
2017-07-29T18:03:30.283Z,56.30
2017-07-29T18:05:56.332Z,56.30
2017-07-29T18:08:22.394Z,56.40
2017-07-29T18:10:48.445Z,56.40
2017-07-29T18:13:14.498Z,56.40
2017-07-29T18:15:40.570Z,56.40
2017-07-29T18:18:06.619Z,56.40
2017-07-29T18:20:32.676Z,56.40
2017-07-29T18:22:58.754Z,56.50
2017-07-29T18:25:24.807Z,56.50
2017-07-29T18:27:51.610Z,56.70
2017-07-29T18:30:17.686Z,56.50
2017-07-29T18:32:43.734Z,56.70
2017-07-29T18:35:09.785Z,56.70
2017-07-29T18:37:35.847Z,56.70
2017-07-29T18:40:01.917Z,56.70
2017-07-29T18:42:27.957Z,56.80
2017-07-29T18:44:54.010Z,56.80
2017-07-29T18:47:20.065Z,56.80
2017-07-29T18:49:46.126Z,56.90
2017-07-29T18:52:12.174Z,56.80
2017-07-29T18:54:38.213Z,56.90
2017-07-29T18:57:04.256Z,56.90
2017-07-29T18:59:30.349Z,56.90
2017-07-29T19:01:56.383Z,57.00
2017-07-29T19:04:22.426Z,57.10
2017-07-29T19:06:48.475Z,57.00
2017-07-29T19:09:14.600Z,57.10
2017-07-29T19:11:40.675Z,57.10
2017-07-29T19:14:06.714Z,57.20
2017-07-29T19:16:32.778Z,57.30
2017-07-29T19:18:58.827Z,57.30
2017-07-29T19:21:24.862Z,57.20
2017-07-29T19:23:50.910Z,57.40
2017-07-29T19:26:16.962Z,57.40
2017-07-29T19:28:42.994Z,57.30
2017-07-29T19:31:09.055Z,57.40
2017-07-29T19:33:35.090Z,57.40
2017-07-29T19:36:01.138Z,57.40
2017-07-29T19:38:27.195Z,57.50
2017-07-29T19:40:53.242Z,57.60
2017-07-29T19:43:19.286Z,57.60
2017-07-29T19:45:45.329Z,57.60
2017-07-29T19:48:11.365Z,57.70
2017-07-29T19:50:37.418Z,57.70
2017-07-29T19:53:03.486Z,57.70
2017-07-29T19:55:29.539Z,57.70
2017-07-29T19:57:55.594Z,57.80
2017-07-29T20:00:21.645Z,57.90
2017-07-29T20:02:47.722Z,57.90
2017-07-29T20:05:13.778Z,58.10
2017-07-29T20:07:40.593Z,58.10
2017-07-29T20:10:06.655Z,58.10
2017-07-29T20:12:32.718Z,58.10
2017-07-29T20:14:58.780Z,58.10
2017-07-29T20:17:24.833Z,58.00
2017-07-29T20:19:50.890Z,58.10
2017-07-29T20:22:16.949Z,58.20
2017-07-29T20:24:43.015Z,58.30
2017-07-29T20:27:09.821Z,58.20
2017-07-29T20:29:35.889Z,58.20
2017-07-29T20:32:02.689Z,58.40
2017-07-29T20:34:28.762Z,58.40
2017-07-29T20:36:54.830Z,58.90
2017-07-29T20:39:20.882Z,59.00
2017-07-29T20:41:46.952Z,59.40
2017-07-29T20:44:13.020Z,60.00
2017-07-29T20:46:39.075Z,58.80
2017-07-29T20:49:05.884Z,58.60
2017-07-29T20:51:31.941Z,58.60
2017-07-29T20:53:58.005Z,58.60
2017-07-29T20:56:24.062Z,58.60
2017-07-29T20:58:50.123Z,58.60
2017-07-29T21:01:16.187Z,58.60
2017-07-29T21:03:42.262Z,58.80
2017-07-29T21:06:08.322Z,59.00
2017-07-29T21:08:34.386Z,59.30
2017-07-29T21:11:00.446Z,59.40
2017-07-29T21:13:29.272Z,58.90
2017-07-29T21:15:55.327Z,59.30
2017-07-29T21:18:21.388Z,59.50
2017-07-29T21:20:47.450Z,59.90
2017-07-29T21:23:13.523Z,60.90
2017-07-29T21:25:39.597Z,60.30
2017-07-29T21:28:05.657Z,60.40
2017-07-29T21:30:31.718Z,61.90
2017-07-29T21:32:57.774Z,61.40
2017-07-29T21:35:23.866Z,61.30
2017-07-29T21:37:49.929Z,59.80
2017-07-29T21:40:15.988Z,60.30
2017-07-29T21:42:42.055Z,61.30
2017-07-29T21:45:08.856Z,60.50
2017-07-29T21:47:34.919Z,60.40
2017-07-29T21:50:00.991Z,60.20
2017-07-29T21:52:27.058Z,60.70
2017-07-29T21:54:53.121Z,61.70
2017-07-29T21:57:19.188Z,60.80
2017-07-29T21:59:45.275Z,60.40
2017-07-29T22:02:11.362Z,61.00
2017-07-29T22:04:37.434Z,60.80
2017-07-29T22:07:03.494Z,60.50
2017-07-29T22:09:29.554Z,60.90
2017-07-29T22:11:55.626Z,61.50
2017-07-29T22:14:21.685Z,60.50
2017-07-29T22:16:47.754Z,60.00
2017-07-29T22:19:13.847Z,60.60
2017-07-29T22:21:39.918Z,60.70
2017-07-29T22:24:05.978Z,61.90
2017-07-29T22:26:32.034Z,60.60
2017-07-29T22:28:58.106Z,61.40
2017-07-29T22:31:24.169Z,61.40
2017-07-29T22:33:50.234Z,61.80
2017-07-29T22:36:16.293Z,60.90
2017-07-29T22:38:42.366Z,62.00
2017-07-29T22:41:08.541Z,61.10
2017-07-29T22:43:34.602Z,62.50
2017-07-29T22:46:00.670Z,61.80
2017-07-29T22:48:26.737Z,62.80
2017-07-29T22:50:52.822Z,60.40
2017-07-29T22:53:18.882Z,62.60
2017-07-29T22:55:44.933Z,62.30
2017-07-29T22:58:10.991Z,62.00
2017-07-29T23:00:37.045Z,61.70
2017-07-29T23:03:03.141Z,62.20
2017-07-29T23:05:29.198Z,61.00
2017-07-29T23:07:55.254Z,61.80
2017-07-29T23:10:21.321Z,62.70
2017-07-29T23:12:47.382Z,62.10
2017-07-29T23:15:13.442Z,62.50
2017-07-29T23:17:39.511Z,64.00
2017-07-29T23:20:06.301Z,62.60
2017-07-29T23:22:32.358Z,62.70
2017-07-29T23:24:58.405Z,62.10
2017-07-29T23:27:24.461Z,62.20
2017-07-29T23:29:50.521Z,61.90
2017-07-29T23:32:16.598Z,61.10
2017-07-29T23:34:42.651Z,62.20
2017-07-29T23:37:08.714Z,62.80
2017-07-29T23:39:34.768Z,63.10
2017-07-29T23:42:00.831Z,61.10
2017-07-29T23:44:26.901Z,62.90
2017-07-29T23:46:52.959Z,61.30
2017-07-29T23:49:19.018Z,63.10
2017-07-29T23:51:45.072Z,62.70
2017-07-29T23:54:11.118Z,61.70
2017-07-29T23:56:37.166Z,61.80
2017-07-29T23:59:03.219Z,62.10
